sensor_id;sensor_type;location;lat;lon;timestamp;temperature;humidity
34572;DHT22;20808;48.974;8.452;2022-12-29T00:00:02;13.40;44.70
34572;DHT22;20808;48.974;8.452;2022-12-29T00:00:19;13.40;45.50
34572;DHT22;20808;48.974;8.452;2022-12-29T00:00:34;13.40;46.20
34572;DHT22;20808;48.974;8.452;2022-12-29T00:00:50;13.40;46.50
34572;DHT22;20808;48.974;8.452;2022-12-29T00:01:06;13.40;46.20
34572;DHT22;20808;48.974;8.452;2022-12-29T00:01:22;13.40;45.30
34572;DHT22;20808;48.974;8.452;2022-12-29T00:01:39;13.40;46.70
34572;DHT22;20808;48.974;8.452;2022-12-29T00:01:55;13.40;46.50
34572;DHT22;20808;48.974;8.452;2022-12-29T00:02:11;13.40;46.20
34572;DHT22;20808;48.974;8.452;2022-12-29T00:02:27;13.40;46.80
34572;DHT22;20808;48.974;8.452;2022-12-29T00:02:43;13.30;46.80
34572;DHT22;20808;48.974;8.452;2022-12-29T00:03:00;13.40;47.20
34572;DHT22;20808;48.974;8.452;2022-12-29T00:03:16;13.40;46.20
34572;DHT22;20808;48.974;8.452;2022-12-29T00:03:31;13.40;47.40
34572;DHT22;20808;48.974;8.452;2022-12-29T00:03:47;13.40;47.60
34572;DHT22;20808;48.974;8.452;2022-12-29T00:04:04;13.40;46.60
34572;DHT22;20808;48.974;8.452;2022-12-29T00:04:20;13.30;45.60
34572;DHT22;20808;48.974;8.452;2022-12-29T00:04:37;13.40;45.80
34572;DHT22;20808;48.974;8.452;2022-12-29T00:04:53;13.40;46.30
34572;DHT22;20808;48.974;8.452;2022-12-29T00:05:09;13.40;46.60
34572;DHT22;20808;48.974;8.452;2022-12-29T00:05:25;13.40;46.90
34572;DHT22;20808;48.974;8.452;2022-12-29T00:05:40;13.40;47.80
34572;DHT22;20808;48.974;8.452;2022-12-29T00:05:57;13.30;47.90
34572;DHT22;20808;48.974;8.452;2022-12-29T00:06:14;13.40;47.80
34572;DHT22;20808;48.974;8.452;2022-12-29T00:06:30;13.30;47.50
34572;DHT22;20808;48.974;8.452;2022-12-29T00:06:46;13.30;48.30
34572;DHT22;20808;48.974;8.452;2022-12-29T00:07:02;13.30;48.70
34572;DHT22;20808;48.974;8.452;2022-12-29T00:07:19;13.30;48.60
34572;DHT22;20808;48.974;8.452;2022-12-29T00:07:35;13.30;49.40
34572;DHT22;20808;48.974;8.452;2022-12-29T00:07:51;13.30;48.20
34572;DHT22;20808;48.974;8.452;2022-12-29T00:08:07;13.30;48.30
34572;DHT22;20808;48.974;8.452;2022-12-29T00:08:23;13.30;48.70
34572;DHT22;20808;48.974;8.452;2022-12-29T00:08:54;13.30;48.80
34572;DHT22;20808;48.974;8.452;2022-12-29T00:09:13;13.30;48.40
34572;DHT22;20808;48.974;8.452;2022-12-29T00:09:29;13.30;48.50
34572;DHT22;20808;48.974;8.452;2022-12-29T00:09:45;13.30;49.70
34572;DHT22;20808;48.974;8.452;2022-12-29T00:10:01;13.30;48.30
34572;DHT22;20808;48.974;8.452;2022-12-29T00:10:17;13.30;48.20
34572;DHT22;20808;48.974;8.452;2022-12-29T00:10:33;13.30;48.70
34572;DHT22;20808;48.974;8.452;2022-12-29T00:10:49;13.30;48.30
34572;DHT22;20808;48.974;8.452;2022-12-29T00:11:06;13.30;48.30
34572;DHT22;20808;48.974;8.452;2022-12-29T00:11:24;13.40;48.50
34572;DHT22;20808;48.974;8.452;2022-12-29T00:11:40;13.30;48.80
34572;DHT22;20808;48.974;8.452;2022-12-29T00:11:56;13.30;49.50
34572;DHT22;20808;48.974;8.452;2022-12-29T00:12:13;13.30;49.20
34572;DHT22;20808;48.974;8.452;2022-12-29T00:12:29;13.30;49.60
34572;DHT22;20808;48.974;8.452;2022-12-29T00:13:04;13.30;49.60
34572;DHT22;20808;48.974;8.452;2022-12-29T00:13:39;13.30;49.90
34572;DHT22;20808;48.974;8.452;2022-12-29T00:14:13;13.30;50.00
34572;DHT22;20808;48.974;8.452;2022-12-29T00:14:48;13.30;48.80
34572;DHT22;20808;48.974;8.452;2022-12-29T00:15:22;13.30;65.30
34572;DHT22;20808;48.974;8.452;2022-12-29T00:15:53;13.30;48.70
34572;DHT22;20808;48.974;8.452;2022-12-29T00:16:09;13.40;48.50
34572;DHT22;20808;48.974;8.452;2022-12-29T00:16:26;13.30;49.30
34572;DHT22;20808;48.974;8.452;2022-12-29T00:16:44;13.30;49.20
34572;DHT22;20808;48.974;8.452;2022-12-29T00:17:00;13.30;49.30
34572;DHT22;20808;48.974;8.452;2022-12-29T00:17:16;13.30;49.70
34572;DHT22;20808;48.974;8.452;2022-12-29T00:17:32;13.30;51.00
34572;DHT22;20808;48.974;8.452;2022-12-29T00:17:48;13.30;49.80
34572;DHT22;20808;48.974;8.452;2022-12-29T00:18:04;13.30;49.60
34572;DHT22;20808;48.974;8.452;2022-12-29T00:18:20;13.30;49.80
34572;DHT22;20808;48.974;8.452;2022-12-29T00:18:36;13.30;50.10
34572;DHT22;20808;48.974;8.452;2022-12-29T00:18:52;13.30;51.00
34572;DHT22;20808;48.974;8.452;2022-12-29T00:19:08;13.30;51.20
34572;DHT22;20808;48.974;8.452;2022-12-29T00:19:44;13.30;50.20
34572;DHT22;20808;48.974;8.452;2022-12-29T00:20:18;13.30;49.90
34572;DHT22;20808;48.974;8.452;2022-12-29T00:20:54;13.30;49.80
34572;DHT22;20808;48.974;8.452;2022-12-29T00:21:40;13.30;50.90
34572;DHT22;20808;48.974;8.452;2022-12-29T00:22:20;13.30;58.50
34572;DHT22;20808;48.974;8.452;2022-12-29T00:22:54;13.30;51.60
34572;DHT22;20808;48.974;8.452;2022-12-29T00:23:28;13.20;51.60
34572;DHT22;20808;48.974;8.452;2022-12-29T00:24:03;13.20;51.80
34572;DHT22;20808;48.974;8.452;2022-12-29T00:24:39;13.20;52.00
34572;DHT22;20808;48.974;8.452;2022-12-29T00:25:14;13.20;52.20
34572;DHT22;20808;48.974;8.452;2022-12-29T00:25:48;13.20;52.70
34572;DHT22;20808;48.974;8.452;2022-12-29T00:26:23;13.20;51.70
34572;DHT22;20808;48.974;8.452;2022-12-29T00:27:11;13.20;52.50
34572;DHT22;20808;48.974;8.452;2022-12-29T00:27:46;13.20;51.90
34572;DHT22;20808;48.974;8.452;2022-12-29T00:28:20;13.20;52.00
34572;DHT22;20808;48.974;8.452;2022-12-29T00:28:54;13.20;51.60
34572;DHT22;20808;48.974;8.452;2022-12-29T00:29:25;13.20;52.90
34572;DHT22;20808;48.974;8.452;2022-12-29T00:30:00;13.20;53.40
34572;DHT22;20808;48.974;8.452;2022-12-29T00:30:35;13.20;53.30
34572;DHT22;20808;48.974;8.452;2022-12-29T00:31:11;13.20;52.60
34572;DHT22;20808;48.974;8.452;2022-12-29T00:31:46;13.20;53.60
34572;DHT22;20808;48.974;8.452;2022-12-29T00:32:20;13.20;53.40
34572;DHT22;20808;48.974;8.452;2022-12-29T00:32:54;13.20;53.30
34572;DHT22;20808;48.974;8.452;2022-12-29T00:33:30;13.20;53.40
34572;DHT22;20808;48.974;8.452;2022-12-29T00:34:09;13.20;53.20
34572;DHT22;20808;48.974;8.452;2022-12-29T00:34:44;13.20;53.40
34572;DHT22;20808;48.974;8.452;2022-12-29T00:35:24;13.20;53.90
34572;DHT22;20808;48.974;8.452;2022-12-29T00:35:45;13.20;53.60
34572;DHT22;20808;48.974;8.452;2022-12-29T00:36:04;13.10;53.90
34572;DHT22;20808;48.974;8.452;2022-12-29T00:36:24;13.10;54.20
34572;DHT22;20808;48.974;8.452;2022-12-29T00:36:42;13.20;53.90
34572;DHT22;20808;48.974;8.452;2022-12-29T00:37:00;13.10;54.10
34572;DHT22;20808;48.974;8.452;2022-12-29T00:37:16;13.10;53.10
34572;DHT22;20808;48.974;8.452;2022-12-29T00:37:54;13.10;53.60
34572;DHT22;20808;48.974;8.452;2022-12-29T00:38:31;13.20;53.10
34572;DHT22;20808;48.974;8.452;2022-12-29T00:39:08;13.20;53.60
34572;DHT22;20808;48.974;8.452;2022-12-29T00:39:45;13.20;53.30
34572;DHT22;20808;48.974;8.452;2022-12-29T00:40:20;13.20;54.40
34572;DHT22;20808;48.974;8.452;2022-12-29T00:40:50;13.20;54.40
34572;DHT22;20808;48.974;8.452;2022-12-29T00:41:24;13.20;55.50
34572;DHT22;20808;48.974;8.452;2022-12-29T00:42:13;13.20;55.80
34572;DHT22;20808;48.974;8.452;2022-12-29T00:42:47;13.20;56.50
34572;DHT22;20808;48.974;8.452;2022-12-29T00:43:22;13.20;56.90
34572;DHT22;20808;48.974;8.452;2022-12-29T00:43:56;13.10;57.10
34572;DHT22;20808;48.974;8.452;2022-12-29T00:44:22;13.10;57.60
34572;DHT22;20808;48.974;8.452;2022-12-29T00:44:37;13.10;57.10
34572;DHT22;20808;48.974;8.452;2022-12-29T00:44:53;13.10;58.50
34572;DHT22;20808;48.974;8.452;2022-12-29T00:45:09;13.10;57.60
34572;DHT22;20808;48.974;8.452;2022-12-29T00:45:25;13.10;57.60
34572;DHT22;20808;48.974;8.452;2022-12-29T00:45:42;13.10;58.70
34572;DHT22;20808;48.974;8.452;2022-12-29T00:45:57;13.10;58.10
34572;DHT22;20808;48.974;8.452;2022-12-29T00:46:13;13.10;58.30
34572;DHT22;20808;48.974;8.452;2022-12-29T00:46:29;13.10;58.70
34572;DHT22;20808;48.974;8.452;2022-12-29T00:46:45;13.10;58.20
34572;DHT22;20808;48.974;8.452;2022-12-29T00:47:02;13.10;58.40
34572;DHT22;20808;48.974;8.452;2022-12-29T00:47:19;13.10;58.20
34572;DHT22;20808;48.974;8.452;2022-12-29T00:47:35;13.10;59.00
34572;DHT22;20808;48.974;8.452;2022-12-29T00:47:51;13.10;60.00
34572;DHT22;20808;48.974;8.452;2022-12-29T00:48:07;13.00;59.40
34572;DHT22;20808;48.974;8.452;2022-12-29T00:48:22;13.00;59.40
34572;DHT22;20808;48.974;8.452;2022-12-29T00:48:53;13.00;59.80
34572;DHT22;20808;48.974;8.452;2022-12-29T00:49:27;13.00;59.60
34572;DHT22;20808;48.974;8.452;2022-12-29T00:49:46;13.00;60.00
34572;DHT22;20808;48.974;8.452;2022-12-29T00:50:03;13.00;61.40
34572;DHT22;20808;48.974;8.452;2022-12-29T00:50:18;13.00;60.80
34572;DHT22;20808;48.974;8.452;2022-12-29T00:50:34;13.00;61.00
34572;DHT22;20808;48.974;8.452;2022-12-29T00:50:55;13.00;62.30
34572;DHT22;20808;48.974;8.452;2022-12-29T00:51:11;13.00;61.50
34572;DHT22;20808;48.974;8.452;2022-12-29T00:51:27;13.00;61.10
34572;DHT22;20808;48.974;8.452;2022-12-29T00:51:42;13.00;61.00
34572;DHT22;20808;48.974;8.452;2022-12-29T00:52:00;13.00;60.60
34572;DHT22;20808;48.974;8.452;2022-12-29T00:52:17;13.00;61.30
34572;DHT22;20808;48.974;8.452;2022-12-29T00:52:33;13.00;61.80
34572;DHT22;20808;48.974;8.452;2022-12-29T00:52:49;13.00;63.00
34572;DHT22;20808;48.974;8.452;2022-12-29T00:53:05;13.00;62.70
34572;DHT22;20808;48.974;8.452;2022-12-29T00:53:21;13.00;60.60
34572;DHT22;20808;48.974;8.452;2022-12-29T00:53:36;13.00;62.80
34572;DHT22;20808;48.974;8.452;2022-12-29T00:53:53;13.00;61.80
34572;DHT22;20808;48.974;8.452;2022-12-29T00:54:09;13.00;63.00
34572;DHT22;20808;48.974;8.452;2022-12-29T00:54:25;13.00;62.70
34572;DHT22;20808;48.974;8.452;2022-12-29T00:54:41;13.00;63.80
34572;DHT22;20808;48.974;8.452;2022-12-29T00:55:01;13.00;62.80
34572;DHT22;20808;48.974;8.452;2022-12-29T00:55:17;13.00;63.10
34572;DHT22;20808;48.974;8.452;2022-12-29T00:55:36;13.00;64.80
34572;DHT22;20808;48.974;8.452;2022-12-29T00:55:52;13.00;63.70
34572;DHT22;20808;48.974;8.452;2022-12-29T00:56:08;13.00;67.20
34572;DHT22;20808;48.974;8.452;2022-12-29T00:56:24;13.00;69.30
34572;DHT22;20808;48.974;8.452;2022-12-29T00:56:39;12.90;71.60
34572;DHT22;20808;48.974;8.452;2022-12-29T00:56:56;12.90;68.80
34572;DHT22;20808;48.974;8.452;2022-12-29T00:57:12;12.90;70.70
34572;DHT22;20808;48.974;8.452;2022-12-29T00:57:28;12.90;72.00
34572;DHT22;20808;48.974;8.452;2022-12-29T00:57:44;12.90;76.00
34572;DHT22;20808;48.974;8.452;2022-12-29T00:58:00;12.90;74.20
34572;DHT22;20808;48.974;8.452;2022-12-29T00:58:15;12.90;73.50
34572;DHT22;20808;48.974;8.452;2022-12-29T00:58:32;12.80;74.70
34572;DHT22;20808;48.974;8.452;2022-12-29T00:58:48;12.80;75.70
34572;DHT22;20808;48.974;8.452;2022-12-29T00:59:05;12.80;77.20
34572;DHT22;20808;48.974;8.452;2022-12-29T00:59:22;12.80;78.90
34572;DHT22;20808;48.974;8.452;2022-12-29T00:59:40;12.70;80.50
34572;DHT22;20808;48.974;8.452;2022-12-29T00:59:56;12.70;82.60
34572;DHT22;20808;48.974;8.452;2022-12-29T01:00:13;12.70;81.90
34572;DHT22;20808;48.974;8.452;2022-12-29T01:00:29;12.70;82.60
34572;DHT22;20808;48.974;8.452;2022-12-29T01:00:44;12.70;82.80
34572;DHT22;20808;48.974;8.452;2022-12-29T01:01:01;12.70;83.20
34572;DHT22;20808;48.974;8.452;2022-12-29T01:01:17;12.70;82.30
34572;DHT22;20808;48.974;8.452;2022-12-29T01:01:35;12.70;85.90
34572;DHT22;20808;48.974;8.452;2022-12-29T01:01:51;12.60;84.70
34572;DHT22;20808;48.974;8.452;2022-12-29T01:02:08;12.60;86.80
34572;DHT22;20808;48.974;8.452;2022-12-29T01:02:24;12.60;88.90
34572;DHT22;20808;48.974;8.452;2022-12-29T01:02:40;12.60;91.50
34572;DHT22;20808;48.974;8.452;2022-12-29T01:02:57;12.60;92.70
34572;DHT22;20808;48.974;8.452;2022-12-29T01:03:13;12.60;93.20
34572;DHT22;20808;48.974;8.452;2022-12-29T01:03:28;12.60;93.90
34572;DHT22;20808;48.974;8.452;2022-12-29T01:03:44;12.50;94.90
34572;DHT22;20808;48.974;8.452;2022-12-29T01:04:00;12.50;95.90
34572;DHT22;20808;48.974;8.452;2022-12-29T01:04:16;12.50;99.30
34572;DHT22;20808;48.974;8.452;2022-12-29T01:04:32;12.50;99.20
34572;DHT22;20808;48.974;8.452;2022-12-29T01:04:49;12.50;96.70
34572;DHT22;20808;48.974;8.452;2022-12-29T01:05:05;12.50;98.50
34572;DHT22;20808;48.974;8.452;2022-12-29T01:05:21;12.40;99.30
34572;DHT22;20808;48.974;8.452;2022-12-29T01:05:37;12.40;99.90
34572;DHT22;20808;48.974;8.452;2022-12-29T01:05:53;12.40;99.90
34572;DHT22;20808;48.974;8.452;2022-12-29T01:06:10;12.40;99.90
34572;DHT22;20808;48.974;8.452;2022-12-29T01:06:26;12.40;99.90
34572;DHT22;20808;48.974;8.452;2022-12-29T01:06:43;12.30;99.90
34572;DHT22;20808;48.974;8.452;2022-12-29T01:06:59;12.30;99.90
34572;DHT22;20808;48.974;8.452;2022-12-29T01:07:14;12.20;99.90
34572;DHT22;20808;48.974;8.452;2022-12-29T01:07:30;12.30;99.90
34572;DHT22;20808;48.974;8.452;2022-12-29T01:07:47;12.20;99.90
34572;DHT22;20808;48.974;8.452;2022-12-29T01:08:03;12.20;99.90
34572;DHT22;20808;48.974;8.452;2022-12-29T01:08:19;12.20;99.90
34572;DHT22;20808;48.974;8.452;2022-12-29T01:08:35;12.20;99.90
34572;DHT22;20808;48.974;8.452;2022-12-29T01:08:52;12.20;99.90
34572;DHT22;20808;48.974;8.452;2022-12-29T01:09:22;12.20;99.90
34572;DHT22;20808;48.974;8.452;2022-12-29T01:09:57;12.20;99.90
34572;DHT22;20808;48.974;8.452;2022-12-29T01:10:29;12.20;99.90
34572;DHT22;20808;48.974;8.452;2022-12-29T01:10:45;12.20;99.90
34572;DHT22;20808;48.974;8.452;2022-12-29T01:11:03;12.20;99.90
34572;DHT22;20808;48.974;8.452;2022-12-29T01:11:20;12.10;99.90
34572;DHT22;20808;48.974;8.452;2022-12-29T01:11:36;12.10;99.90
34572;DHT22;20808;48.974;8.452;2022-12-29T01:11:51;12.10;99.90
34572;DHT22;20808;48.974;8.452;2022-12-29T01:12:08;12.10;99.90
34572;DHT22;20808;48.974;8.452;2022-12-29T01:12:24;12.10;99.90
34572;DHT22;20808;48.974;8.452;2022-12-29T01:12:55;12.10;99.90
34572;DHT22;20808;48.974;8.452;2022-12-29T01:13:12;12.00;99.90
34572;DHT22;20808;48.974;8.452;2022-12-29T01:13:27;12.00;99.90
34572;DHT22;20808;48.974;8.452;2022-12-29T01:13:43;12.00;99.90
34572;DHT22;20808;48.974;8.452;2022-12-29T01:13:59;12.00;99.90
34572;DHT22;20808;48.974;8.452;2022-12-29T01:14:15;12.00;99.90
34572;DHT22;20808;48.974;8.452;2022-12-29T01:14:31;12.00;99.90
34572;DHT22;20808;48.974;8.452;2022-12-29T01:14:48;12.00;99.90
34572;DHT22;20808;48.974;8.452;2022-12-29T01:15:05;12.00;99.90
34572;DHT22;20808;48.974;8.452;2022-12-29T01:15:21;12.00;99.90
34572;DHT22;20808;48.974;8.452;2022-12-29T01:15:37;11.90;99.90
34572;DHT22;20808;48.974;8.452;2022-12-29T01:15:53;12.00;99.90
34572;DHT22;20808;48.974;8.452;2022-12-29T01:16:09;11.90;99.90
34572;DHT22;20808;48.974;8.452;2022-12-29T01:16:26;11.90;99.90
34572;DHT22;20808;48.974;8.452;2022-12-29T01:16:42;11.90;99.90
34572;DHT22;20808;48.974;8.452;2022-12-29T01:16:58;11.90;99.90
34572;DHT22;20808;48.974;8.452;2022-12-29T01:17:13;12.00;99.90
34572;DHT22;20808;48.974;8.452;2022-12-29T01:17:29;12.00;99.90
34572;DHT22;20808;48.974;8.452;2022-12-29T01:17:45;12.00;99.90
34572;DHT22;20808;48.974;8.452;2022-12-29T01:18:02;12.00;99.90
34572;DHT22;20808;48.974;8.452;2022-12-29T01:18:18;12.00;99.90
34572;DHT22;20808;48.974;8.452;2022-12-29T01:18:34;12.00;99.90
34572;DHT22;20808;48.974;8.452;2022-12-29T01:18:50;12.00;99.90
34572;DHT22;20808;48.974;8.452;2022-12-29T01:19:05;12.00;99.90
34572;DHT22;20808;48.974;8.452;2022-12-29T01:19:22;12.10;99.90
34572;DHT22;20808;48.974;8.452;2022-12-29T01:19:38;12.00;99.90
34572;DHT22;20808;48.974;8.452;2022-12-29T01:19:55;12.00;99.90
34572;DHT22;20808;48.974;8.452;2022-12-29T01:20:11;12.00;99.90
34572;DHT22;20808;48.974;8.452;2022-12-29T01:20:27;12.00;99.90
34572;DHT22;20808;48.974;8.452;2022-12-29T01:20:44;12.00;99.90
34572;DHT22;20808;48.974;8.452;2022-12-29T01:21:00;12.00;99.90
34572;DHT22;20808;48.974;8.452;2022-12-29T01:21:16;12.00;99.90
34572;DHT22;20808;48.974;8.452;2022-12-29T01:21:32;12.00;99.90
34572;DHT22;20808;48.974;8.452;2022-12-29T01:21:49;12.00;99.90
34572;DHT22;20808;48.974;8.452;2022-12-29T01:22:05;12.00;99.90
34572;DHT22;20808;48.974;8.452;2022-12-29T01:22:21;12.00;99.90
34572;DHT22;20808;48.974;8.452;2022-12-29T01:22:38;12.00;99.90
34572;DHT22;20808;48.974;8.452;2022-12-29T01:22:54;12.00;99.90
34572;DHT22;20808;48.974;8.452;2022-12-29T01:23:10;12.00;99.90
34572;DHT22;20808;48.974;8.452;2022-12-29T01:23:25;12.00;99.90
34572;DHT22;20808;48.974;8.452;2022-12-29T01:23:41;12.00;99.90
34572;DHT22;20808;48.974;8.452;2022-12-29T01:23:57;12.00;99.90
34572;DHT22;20808;48.974;8.452;2022-12-29T01:24:13;12.10;99.90
34572;DHT22;20808;48.974;8.452;2022-12-29T01:24:30;12.10;99.90
34572;DHT22;20808;48.974;8.452;2022-12-29T01:24:46;12.10;99.90
34572;DHT22;20808;48.974;8.452;2022-12-29T01:25:02;12.10;99.90
34572;DHT22;20808;48.974;8.452;2022-12-29T01:25:18;12.10;99.90
34572;DHT22;20808;48.974;8.452;2022-12-29T01:25:36;12.10;99.90
34572;DHT22;20808;48.974;8.452;2022-12-29T01:25:52;12.00;99.90
34572;DHT22;20808;48.974;8.452;2022-12-29T01:26:09;12.10;99.90
34572;DHT22;20808;48.974;8.452;2022-12-29T01:26:25;12.10;99.90
34572;DHT22;20808;48.974;8.452;2022-12-29T01:26:41;12.10;99.90
34572;DHT22;20808;48.974;8.452;2022-12-29T01:26:57;12.10;99.90
34572;DHT22;20808;48.974;8.452;2022-12-29T01:27:13;12.10;99.90
34572;DHT22;20808;48.974;8.452;2022-12-29T01:27:29;12.10;99.90
34572;DHT22;20808;48.974;8.452;2022-12-29T01:27:45;12.10;99.90
34572;DHT22;20808;48.974;8.452;2022-12-29T01:28:01;12.10;99.90
34572;DHT22;20808;48.974;8.452;2022-12-29T01:28:16;12.10;99.90
34572;DHT22;20808;48.974;8.452;2022-12-29T01:28:32;12.10;99.90
34572;DHT22;20808;48.974;8.452;2022-12-29T01:28:49;12.10;99.90
34572;DHT22;20808;48.974;8.452;2022-12-29T01:29:05;12.10;99.90
34572;DHT22;20808;48.974;8.452;2022-12-29T01:29:21;12.10;99.90
34572;DHT22;20808;48.974;8.452;2022-12-29T01:29:37;12.10;99.90
34572;DHT22;20808;48.974;8.452;2022-12-29T01:29:52;12.10;99.90
34572;DHT22;20808;48.974;8.452;2022-12-29T01:30:10;12.10;99.90
34572;DHT22;20808;48.974;8.452;2022-12-29T01:30:26;12.10;99.90
34572;DHT22;20808;48.974;8.452;2022-12-29T01:30:41;12.10;99.90
34572;DHT22;20808;48.974;8.452;2022-12-29T01:31:00;12.10;99.90
34572;DHT22;20808;48.974;8.452;2022-12-29T01:31:16;12.10;99.90
34572;DHT22;20808;48.974;8.452;2022-12-29T01:31:32;12.10;99.90
34572;DHT22;20808;48.974;8.452;2022-12-29T01:31:48;12.10;99.90
34572;DHT22;20808;48.974;8.452;2022-12-29T01:32:05;12.10;99.90
34572;DHT22;20808;48.974;8.452;2022-12-29T01:32:21;12.10;99.90
34572;DHT22;20808;48.974;8.452;2022-12-29T01:32:37;12.10;99.90
34572;DHT22;20808;48.974;8.452;2022-12-29T01:32:52;12.00;99.90
34572;DHT22;20808;48.974;8.452;2022-12-29T01:33:08;12.10;99.90
34572;DHT22;20808;48.974;8.452;2022-12-29T01:33:25;12.00;99.90
34572;DHT22;20808;48.974;8.452;2022-12-29T01:33:41;12.10;99.90
34572;DHT22;20808;48.974;8.452;2022-12-29T01:33:57;12.10;99.90
34572;DHT22;20808;48.974;8.452;2022-12-29T01:34:13;12.10;99.90
34572;DHT22;20808;48.974;8.452;2022-12-29T01:34:29;12.10;99.90
34572;DHT22;20808;48.974;8.452;2022-12-29T01:34:45;12.10;99.90
34572;DHT22;20808;48.974;8.452;2022-12-29T01:35:02;12.10;99.90
34572;DHT22;20808;48.974;8.452;2022-12-29T01:35:18;12.10;99.90
34572;DHT22;20808;48.974;8.452;2022-12-29T01:35:34;12.10;99.90
34572;DHT22;20808;48.974;8.452;2022-12-29T01:35:50;12.10;99.90
34572;DHT22;20808;48.974;8.452;2022-12-29T01:36:08;12.10;99.90
34572;DHT22;20808;48.974;8.452;2022-12-29T01:36:24;12.10;99.90
34572;DHT22;20808;48.974;8.452;2022-12-29T01:36:41;12.10;99.90
34572;DHT22;20808;48.974;8.452;2022-12-29T01:36:57;12.10;99.90
34572;DHT22;20808;48.974;8.452;2022-12-29T01:37:13;12.10;99.90
34572;DHT22;20808;48.974;8.452;2022-12-29T01:37:29;12.10;99.90
34572;DHT22;20808;48.974;8.452;2022-12-29T01:37:44;12.10;99.90
34572;DHT22;20808;48.974;8.452;2022-12-29T01:38:00;12.10;99.90
34572;DHT22;20808;48.974;8.452;2022-12-29T01:38:17;12.10;99.90
34572;DHT22;20808;48.974;8.452;2022-12-29T01:38:34;12.10;99.90
34572;DHT22;20808;48.974;8.452;2022-12-29T01:38:50;12.10;99.90
34572;DHT22;20808;48.974;8.452;2022-12-29T01:39:06;12.10;99.90
34572;DHT22;20808;48.974;8.452;2022-12-29T01:39:22;12.10;99.90
34572;DHT22;20808;48.974;8.452;2022-12-29T01:39:39;12.10;99.90
34572;DHT22;20808;48.974;8.452;2022-12-29T01:39:54;12.10;99.90
34572;DHT22;20808;48.974;8.452;2022-12-29T01:40:11;12.10;99.90
34572;DHT22;20808;48.974;8.452;2022-12-29T01:40:27;12.10;99.90
34572;DHT22;20808;48.974;8.452;2022-12-29T01:40:47;12.10;99.90
34572;DHT22;20808;48.974;8.452;2022-12-29T01:41:04;12.20;99.90
34572;DHT22;20808;48.974;8.452;2022-12-29T01:41:21;12.10;99.90
34572;DHT22;20808;48.974;8.452;2022-12-29T01:41:37;12.20;99.90
34572;DHT22;20808;48.974;8.452;2022-12-29T01:41:53;12.20;99.90
34572;DHT22;20808;48.974;8.452;2022-12-29T01:42:15;12.20;99.90
34572;DHT22;20808;48.974;8.452;2022-12-29T01:42:32;12.20;99.90
34572;DHT22;20808;48.974;8.452;2022-12-29T01:42:48;12.20;99.90
34572;DHT22;20808;48.974;8.452;2022-12-29T01:43:04;12.20;99.90
34572;DHT22;20808;48.974;8.452;2022-12-29T01:43:39;12.20;99.90
34572;DHT22;20808;48.974;8.452;2022-12-29T01:43:57;12.20;99.90
34572;DHT22;20808;48.974;8.452;2022-12-29T01:44:50;12.20;99.90
34572;DHT22;20808;48.974;8.452;2022-12-29T01:45:09;12.20;99.90
34572;DHT22;20808;48.974;8.452;2022-12-29T01:45:25;12.20;99.90
34572;DHT22;20808;48.974;8.452;2022-12-29T01:45:45;12.20;99.90
34572;DHT22;20808;48.974;8.452;2022-12-29T01:46:08;12.20;99.90
34572;DHT22;20808;48.974;8.452;2022-12-29T01:46:31;12.20;99.90
34572;DHT22;20808;48.974;8.452;2022-12-29T01:46:48;12.20;99.90
34572;DHT22;20808;48.974;8.452;2022-12-29T01:47:06;12.20;99.90
34572;DHT22;20808;48.974;8.452;2022-12-29T01:47:29;12.20;99.90
34572;DHT22;20808;48.974;8.452;2022-12-29T01:47:50;12.20;99.90
34572;DHT22;20808;48.974;8.452;2022-12-29T01:48:08;12.20;99.90
34572;DHT22;20808;48.974;8.452;2022-12-29T01:48:25;12.20;99.90
34572;DHT22;20808;48.974;8.452;2022-12-29T01:48:42;12.20;99.90
34572;DHT22;20808;48.974;8.452;2022-12-29T01:49:03;12.20;99.90
34572;DHT22;20808;48.974;8.452;2022-12-29T01:49:23;12.20;99.90
34572;DHT22;20808;48.974;8.452;2022-12-29T01:49:40;12.20;99.90
34572;DHT22;20808;48.974;8.452;2022-12-29T01:49:58;12.20;99.90
34572;DHT22;20808;48.974;8.452;2022-12-29T01:50:18;12.30;99.90
34572;DHT22;20808;48.974;8.452;2022-12-29T01:50:39;12.30;99.90
34572;DHT22;20808;48.974;8.452;2022-12-29T01:50:56;12.30;99.90
34572;DHT22;20808;48.974;8.452;2022-12-29T01:51:12;12.30;99.90
34572;DHT22;20808;48.974;8.452;2022-12-29T01:51:31;12.30;99.90
34572;DHT22;20808;48.974;8.452;2022-12-29T01:51:49;12.30;99.90
34572;DHT22;20808;48.974;8.452;2022-12-29T01:52:07;12.30;99.90
34572;DHT22;20808;48.974;8.452;2022-12-29T01:52:24;12.30;99.90
34572;DHT22;20808;48.974;8.452;2022-12-29T01:52:49;12.30;99.90
34572;DHT22;20808;48.974;8.452;2022-12-29T01:53:10;12.30;99.90
34572;DHT22;20808;48.974;8.452;2022-12-29T01:53:28;12.30;99.90
34572;DHT22;20808;48.974;8.452;2022-12-29T01:53:48;12.30;99.90
34572;DHT22;20808;48.974;8.452;2022-12-29T01:54:07;12.30;99.90
34572;DHT22;20808;48.974;8.452;2022-12-29T01:54:27;12.30;99.90
34572;DHT22;20808;48.974;8.452;2022-12-29T01:54:50;12.30;99.90
34572;DHT22;20808;48.974;8.452;2022-12-29T01:55:08;12.30;99.90
34572;DHT22;20808;48.974;8.452;2022-12-29T01:55:27;12.30;99.90
34572;DHT22;20808;48.974;8.452;2022-12-29T01:55:49;12.20;99.90
34572;DHT22;20808;48.974;8.452;2022-12-29T01:56:07;12.30;99.90
34572;DHT22;20808;48.974;8.452;2022-12-29T01:56:26;12.30;99.90
34572;DHT22;20808;48.974;8.452;2022-12-29T01:56:42;12.20;99.90
34572;DHT22;20808;48.974;8.452;2022-12-29T01:57:01;12.30;99.90
34572;DHT22;20808;48.974;8.452;2022-12-29T01:57:22;12.30;99.90
34572;DHT22;20808;48.974;8.452;2022-12-29T01:57:42;12.30;99.90
34572;DHT22;20808;48.974;8.452;2022-12-29T01:58:01;12.30;99.90
34572;DHT22;20808;48.974;8.452;2022-12-29T01:58:22;12.30;99.90
34572;DHT22;20808;48.974;8.452;2022-12-29T01:58:41;12.30;99.90
34572;DHT22;20808;48.974;8.452;2022-12-29T01:59:02;12.30;99.90
34572;DHT22;20808;48.974;8.452;2022-12-29T01:59:24;12.30;99.90
34572;DHT22;20808;48.974;8.452;2022-12-29T01:59:45;12.30;99.90
34572;DHT22;20808;48.974;8.452;2022-12-29T02:00:08;12.30;99.90
34572;DHT22;20808;48.974;8.452;2022-12-29T02:00:25;12.30;99.90
34572;DHT22;20808;48.974;8.452;2022-12-29T02:00:41;12.30;99.90
34572;DHT22;20808;48.974;8.452;2022-12-29T02:00:57;12.30;99.90
34572;DHT22;20808;48.974;8.452;2022-12-29T02:01:15;12.30;99.90
34572;DHT22;20808;48.974;8.452;2022-12-29T02:01:32;12.40;99.90
34572;DHT22;20808;48.974;8.452;2022-12-29T02:01:48;12.30;99.90
34572;DHT22;20808;48.974;8.452;2022-12-29T02:02:05;12.30;99.90
34572;DHT22;20808;48.974;8.452;2022-12-29T02:02:21;12.30;99.90
34572;DHT22;20808;48.974;8.452;2022-12-29T02:02:37;12.30;99.90
34572;DHT22;20808;48.974;8.452;2022-12-29T02:02:55;12.30;99.90